^^
Station Historical Data
 
Daily Summary for August 29, 2014 Units:  English    Metric   Both
« Previous Day
Next Day »
Daily Weekly Monthly Yearly Custom
  Current: High: Low: Average:
Temperature: 60.1 °F 80.1 °F 48.9 °F 62.6 °F
Dew Point: 51.8 °F 56.4 °F 43.1 °F 50.2 °F
Humidity: 74% 93% 28% 68%
Wind Speed: 0.0mph 12.7mph 0.0mph 4.3mph
Wind Gust: 0.0mph 12.7mph - -
WindCalm - - SSW
Pressure: 29.78 in 29.88 in 29.75 in -
Precipitation: 0.21 in      
Historical Graphs
 
 
Tabular Data for August 29, 2014
Time Temperature Dew Point Pressure Wind Wind Speed Wind Gust Humidity Rainfall Rate (Hourly)
00:03 53.6 °F 48.2 °F 29.83 in Calm     82% 0.00 in
00:08 53.5 °F 48.5 °F 29.83 in Calm     83% 0.00 in
00:13 53.6 °F 48.6 °F 29.83 in Calm     83% 0.00 in
00:18 53.5 °F 48.5 °F 29.83 in Calm     83% 0.00 in
00:23 53.2 °F 48.2 °F 29.83 in Calm     83% 0.00 in
00:28 53.1 °F 48.4 °F 29.83 in Calm     84% 0.00 in
00:33 53.1 °F 48.7 °F 29.83 in Calm     85% 0.00 in
00:38 52.9 °F 48.5 °F 29.83 in Calm     85% 0.00 in
00:43 52.8 °F 48.4 °F 29.83 in Calm     85% 0.00 in
00:48 52.6 °F 48.2 °F 29.83 in Calm     85% 0.00 in
00:53 52.5 °F 48.1 °F 29.83 in Calm     85% 0.00 in
00:58 52.3 °F 48.2 °F 29.83 in Calm     86% 0.00 in
01:03 52.2 °F 48.1 °F 29.83 in Calm     86% 0.00 in
01:08 51.9 °F 47.8 °F 29.83 in Calm     86% 0.00 in
01:13 51.7 °F 47.6 °F 29.82 in Calm     86% 0.00 in
01:18 51.6 °F 47.5 °F 29.82 in Calm     86% 0.00 in
01:23 51.7 °F 48.0 °F 29.82 in Calm     87% 0.00 in
01:28 51.7 °F 48.0 °F 29.82 in Calm     87% 0.00 in
01:33 51.6 °F 48.2 °F 29.82 in Calm     88% 0.00 in
01:38 51.6 °F 48.2 °F 29.82 in Calm     88% 0.00 in
01:43 51.6 °F 48.5 °F 29.82 in Calm     89% 0.00 in
01:48 51.7 °F 48.6 °F 29.81 in Calm     89% 0.00 in
01:53 51.7 °F 48.6 °F 29.81 in Calm     89% 0.00 in
01:58 51.6 °F 48.5 °F 29.81 in Calm     89% 0.00 in
02:03 51.7 °F 48.9 °F 29.83 in Calm     90% 0.00 in
02:08 51.7 °F 48.9 °F 29.83 in Calm     90% 0.00 in
02:13 51.6 °F 48.8 °F 29.82 in Calm     90% 0.00 in
02:18 51.6 °F 48.8 °F 29.82 in Calm     90% 0.00 in
02:23 51.6 °F 48.8 °F 29.83 in Calm     90% 0.00 in
02:28 51.4 °F 48.6 °F 29.83 in Calm     90% 0.00 in
02:33 51.3 °F 48.5 °F 29.83 in Calm     90% 0.00 in
02:38 51.1 °F 48.6 °F 29.83 in Calm     91% 0.00 in
02:43 51.0 °F 48.5 °F 29.83 in Calm     91% 0.00 in
02:48 50.8 °F 48.3 °F 29.83 in Calm     91% 0.00 in
02:53 50.7 °F 48.2 °F 29.83 in Calm     91% 0.00 in
02:58 50.5 °F 48.0 °F 29.83 in Calm     91% 0.00 in
03:03 50.5 °F 48.0 °F 29.83 in Calm     91% 0.00 in
03:08 50.5 °F 48.0 °F 29.82 in Calm     91% 0.00 in
03:13 50.8 °F 48.6 °F 29.82 in Calm     92% 0.00 in
03:18 50.8 °F 48.3 °F 29.82 in Calm     91% 0.00 in
03:23 50.7 °F 48.2 °F 29.82 in Calm     91% 0.00 in
03:28 50.4 °F 47.9 °F 29.82 in Calm     91% 0.00 in
03:33 50.4 °F 48.2 °F 29.83 in Calm     92% 0.00 in
03:38 50.4 °F 47.9 °F 29.83 in Calm     91% 0.00 in
03:43 50.2 °F 48.0 °F 29.83 in Calm     92% 0.00 in
03:48 50.1 °F 47.9 °F 29.84 in Calm     92% 0.00 in
03:53 50.1 °F 47.9 °F 29.84 in Calm     92% 0.00 in
03:58 50.2 °F 48.0 °F 29.83 in Calm     92% 0.00 in
04:03 50.2 °F 48.0 °F 29.82 in Calm     92% 0.00 in
04:08 50.1 °F 47.9 °F 29.82 in Calm     92% 0.00 in
04:13 49.9 °F 47.7 °F 29.83 in Calm     92% 0.00 in
04:18 49.8 °F 47.6 °F 29.83 in Calm     92% 0.00 in
04:22 49.4 °F 47.2 °F 29.83 in Calm     92% 0.00 in
04:27 49.1 °F 46.9 °F 29.83 in Calm     92% 0.00 in
04:32 48.9 °F 46.7 °F 29.83 in Calm     92% 0.00 in
04:37 49.1 °F 46.9 °F 29.83 in Calm     92% 0.00 in
04:42 49.2 °F 47.0 °F 29.83 in Calm     92% 0.00 in
04:47 49.2 °F 47.0 °F 29.83 in Calm     92% 0.00 in
04:52 49.4 °F 47.2 °F 29.83 in Calm     92% 0.00 in
04:57 49.4 °F 47.2 °F 29.83 in Calm     92% 0.00 in
05:02 49.1 °F 46.9 °F 29.83 in Calm     92% 0.00 in
05:07 49.1 °F 46.9 °F 29.83 in Calm     92% 0.00 in
05:12 49.1 °F 46.9 °F 29.83 in Calm     92% 0.01 in
05:17 49.1 °F 47.2 °F 29.83 in Calm     93% 0.01 in
05:22 49.1 °F 47.2 °F 29.83 in Calm     93% 0.01 in
05:27 49.5 °F 47.6 °F 29.82 in Calm     93% 0.01 in
05:32 49.6 °F 47.7 °F 29.82 in Calm     93% 0.01 in
05:37 49.6 °F 47.7 °F 29.82 in SSW 1.0 mph   93% 0.01 in
05:42 49.6 °F 47.7 °F 29.83 in Calm     93% 0.01 in
05:47 49.9 °F 48.0 °F 29.83 in Calm     93% 0.01 in
05:52 50.1 °F 48.2 °F 29.83 in Calm     93% 0.01 in
05:57 50.2 °F 48.3 °F 29.83 in Calm     93% 0.01 in
06:02 50.2 °F 48.3 °F 29.84 in Calm     93% 0.01 in
06:07 50.2 °F 48.3 °F 29.84 in Calm     93% 0.01 in
06:12 50.2 °F 48.3 °F 29.85 in Calm     93% 0.00 in
06:17 50.2 °F 48.3 °F 29.84 in Calm     93% 0.00 in
06:22 50.2 °F 48.3 °F 29.84 in SSW 2.3 mph 2.3 mph 93% 0.00 in
06:27 50.1 °F 48.2 °F 29.83 in SSW 1.2 mph 1.2 mph 93% 0.00 in
06:32 50.1 °F 48.2 °F 29.84 in SSW 2.3 mph 2.3 mph 93% 0.00 in
06:37 50.4 °F 48.5 °F 29.84 in Calm     93% 0.00 in
06:42 50.7 °F 48.7 °F 29.84 in Calm     93% 0.00 in
06:47 51.1 °F 49.1 °F 29.84 in SSW 2.3 mph   93% 0.00 in
06:52 51.4 °F 49.2 °F 29.84 in Calm     92% 0.00 in
06:57 51.9 °F 49.6 °F 29.84 in Calm     92% 0.00 in
07:02 52.3 °F 50.0 °F 29.85 in Calm     92% 0.00 in
07:07 52.8 °F 50.5 °F 29.85 in Calm     92% 0.00 in
07:12 53.2 °F 50.6 °F 29.85 in Calm     91% 0.00 in
07:17 53.6 °F 50.7 °F 29.84 in Calm     90% 0.00 in
07:22 53.9 °F 51.0 °F 29.84 in Calm     90% 0.00 in
07:27 54.5 °F 51.3 °F 29.84 in Calm     89% 0.00 in
07:32 55.0 °F 51.8 °F 29.84 in Calm     89% 0.00 in
07:37 55.6 °F 51.8 °F 29.83 in SSW 1.2 mph   87% 0.00 in
07:42 55.9 °F 52.1 °F 29.83 in Calm     87% 0.00 in
07:47 55.9 °F 51.8 °F 29.83 in SSW 1.2 mph   86% 0.00 in
07:52 56.0 °F 51.9 °F 29.83 in Calm   0.1 mph 86% 0.00 in
07:57 56.0 °F 51.6 °F 29.83 in SW 2.3 mph 2.3 mph 85% 0.00 in
08:02 56.7 °F 51.6 °F 29.83 in SW 2.3 mph 2.3 mph 83% 0.00 in
08:07 57.2 °F 52.1 °F 29.83 in Calm     83% 0.00 in
08:12 57.5 °F 51.7 °F 29.83 in SSW 1.2 mph   81% 0.00 in
08:17 58.1 °F 52.6 °F 29.82 in SSW 2.3 mph 2.3 mph 82% 0.00 in
08:22 59.2 °F 53.4 °F 29.82 in SSW 2.3 mph 2.3 mph 81% 0.00 in
08:27 60.2 °F 54.3 °F 29.82 in SSW 3.5 mph   81% 0.00 in
08:32 60.9 °F 54.0 °F 29.81 in SSW 2.0 mph 2.0 mph 78% 0.00 in
08:37 61.2 °F 53.9 °F 29.81 in Calm     77% 0.00 in
08:42 62.1 °F 53.7 °F 29.81 in Calm     74% 0.00 in
08:47 62.9 °F 53.0 °F 29.80 in SSW 2.3 mph   70% 0.00 in
08:52 63.2 °F 52.5 °F 29.80 in SSW 1.2 mph 1.2 mph 68% 0.00 in
08:57 63.2 °F 51.6 °F 29.80 in SSW 3.0 mph 3.0 mph 66% 0.00 in
09:02 64.2 °F 51.8 °F 29.80 in SSW 3.5 mph 3.5 mph 64% 0.00 in
09:07 65.2 °F 52.7 °F 29.80 in Calm   0.4 mph 64% 0.00 in
09:12 66.0 °F 51.3 °F 29.79 in SSW 2.3 mph 2.3 mph 59% 0.00 in
09:17 67.1 °F 52.3 °F 29.79 in SSW 3.5 mph 3.5 mph 59% 0.00 in
09:22 67.8 °F 53.9 °F 29.78 in Calm     61% 0.00 in
09:27 68.1 °F 54.1 °F 29.78 in SSW 1.0 mph   61% 0.00 in
09:32 68.3 °F 51.0 °F 29.78 in SSW 1.2 mph   54% 0.00 in
09:37 69.6 °F 49.6 °F 29.78 in SSW 3.5 mph 3.5 mph 49% 0.00 in
09:42 70.6 °F 49.4 °F 29.78 in SSW 1.2 mph 1.2 mph 47% 0.00 in
09:47 71.5 °F 49.6 °F 29.77 in Calm   1.4 mph 46% 0.00 in
09:52 72.3 °F 47.9 °F 29.77 in SSW 1.2 mph   42% 0.00 in
09:57 73.3 °F 48.8 °F 29.77 in SSW 1.0 mph   42% 0.00 in
10:02 73.9 °F 47.4 °F 29.77 in SSW 1.2 mph 1.2 mph 39% 0.00 in
10:07 74.4 °F 47.8 °F 29.77 in Calm   0.2 mph 39% 0.00 in
10:12 74.7 °F 51.9 °F 29.76 in SSW 1.2 mph   45% 0.00 in
10:17 74.9 °F 48.9 °F 29.77 in SW 3.5 mph   40% 0.00 in
10:22 74.9 °F 49.6 °F 29.77 in SW 1.2 mph 1.2 mph 41% 0.00 in
10:27 75.1 °F 52.9 °F 29.76 in SW 1.0 mph 1.0 mph 46% 0.00 in
10:32 75.4 °F 51.3 °F 29.77 in SW 2.3 mph   43% 0.00 in
10:37 75.4 °F 50.7 °F 29.77 in NW 3.5 mph 3.5 mph 42% 0.00 in
10:42 76.0 °F 49.9 °F 29.76 in NW 5.8 mph 5.8 mph 40% 0.00 in
10:47 76.0 °F 53.7 °F 29.76 in NW 2.0 mph   46% 0.00 in
10:52 76.5 °F 50.4 °F 29.76 in NNW 4.6 mph 4.6 mph 40% 0.00 in
10:57 77.0 °F 51.5 °F 29.75 in NNW 2.3 mph   41% 0.00 in
11:02 77.4 °F 50.5 °F 29.77 in WNW 6.9 mph 6.9 mph 39% 0.00 in
11:07 77.6 °F 51.4 °F 29.76 in NNW 5.0 mph 5.8 mph 40% 0.00 in
11:12 78.3 °F 46.0 °F 29.76 in NNW 11.5 mph 11.5 mph 32% 0.00 in
11:17 78.6 °F 46.3 °F 29.76 in NNE 5.8 mph 5.8 mph 32% 0.00 in
11:22 79.0 °F 46.6 °F 29.76 in NE 3.5 mph 3.5 mph 32% 0.00 in
11:27 79.8 °F 48.9 °F 29.75 in NNW 3.5 mph 3.5 mph 34% 0.00 in
11:32 80.1 °F 46.7 °F 29.75 in North 4.6 mph 4.6 mph 31% 0.00 in
11:37 79.8 °F 44.7 °F 29.75 in NW 10.4 mph 10.4 mph 29% 0.00 in
11:42 78.6 °F 43.7 °F 29.76 in NNW 5.0 mph 5.0 mph 29% 0.00 in
11:47 78.5 °F 46.2 °F 29.76 in North 7.0 mph 7.0 mph 32% 0.00 in
11:52 78.5 °F 46.2 °F 29.76 in NNW 6.9 mph 6.9 mph 32% 0.00 in
11:57 77.7 °F 43.8 °F 29.76 in WNW 11.5 mph 11.5 mph 30% 0.00 in
12:02 78.1 °F 45.0 °F 29.77 in North 4.6 mph 4.6 mph 31% 0.00 in
12:07 78.5 °F 44.5 °F 29.77 in North 10.4 mph 10.4 mph 30% 0.00 in
12:12 78.6 °F 44.6 °F 29.76 in North 9.2 mph 9.2 mph 30% 0.00 in
12:17 78.6 °F 45.4 °F 29.76 in NW 12.7 mph 12.7 mph 31% 0.00 in
12:22 78.5 °F 45.3 °F 29.76 in NNW 6.9 mph 6.9 mph 31% 0.00 in
12:27 78.3 °F 45.2 °F 29.76 in NNW 6.0 mph 6.0 mph 31% 0.00 in
12:32 78.6 °F 46.3 °F 29.76 in NW 11.5 mph 11.5 mph 32% 0.00 in
12:37 78.8 °F 46.4 °F 29.76 in NNW 4.6 mph 4.6 mph 32% 0.00 in
12:42 79.4 °F 47.8 °F 29.76 in North 10.4 mph 10.4 mph 33% 0.00 in
12:47 79.9 °F 47.4 °F 29.75 in NE 3.5 mph 3.5 mph 32% 0.00 in
12:52 80.1 °F 44.0 °F 29.75 in NNW 7.0 mph 7.0 mph 28% 0.00 in
12:57 79.4 °F 45.3 °F 29.76 in NE 3.5 mph 3.5 mph 30% 0.00 in
13:02 79.2 °F 45.9 °F 29.76 in North 3.5 mph 3.5 mph 31% 0.00 in
13:07 79.0 °F 43.1 °F 29.76 in NE 4.6 mph 4.6 mph 28% 0.00 in
13:12 78.8 °F 44.7 °F 29.75 in North 3.5 mph 3.5 mph 30% 0.00 in
13:17 78.6 °F 47.1 °F 29.75 in NNE 3.5 mph 3.5 mph 33% 0.00 in
13:22 78.1 °F 45.8 °F 29.75 in NE 3.5 mph 3.5 mph 32% 0.00 in
13:27 77.6 °F 44.6 °F 29.75 in ENE 6.0 mph 6.0 mph 31% 0.00 in
13:32 77.4 °F 44.4 °F 29.76 in ENE 3.5 mph 3.5 mph 31% 0.00 in
13:37 77.0 °F 43.2 °F 29.76 in ENE 5.8 mph 5.8 mph 30% 0.00 in
13:42 76.8 °F 45.5 °F 29.76 in ENE 5.8 mph 5.8 mph 33% 0.00 in
13:47 76.5 °F 46.8 °F 29.76 in ENE 5.0 mph 5.0 mph 35% 0.00 in
13:52 76.1 °F 47.2 °F 29.76 in ENE 3.5 mph 3.5 mph 36% 0.00 in
13:57 76.0 °F 45.6 °F 29.76 in ENE 4.0 mph 4.0 mph 34% 0.00 in
14:02 76.0 °F 46.4 °F 29.77 in ENE 5.0 mph 5.0 mph 35% 0.00 in
14:07 76.0 °F 46.4 °F 29.76 in East 4.6 mph 4.6 mph 35% 0.00 in
14:12 76.0 °F 46.4 °F 29.76 in ESE 6.9 mph 6.9 mph 35% 0.00 in
14:17 76.0 °F 47.8 °F 29.77 in WSW 3.5 mph 3.5 mph 37% 0.00 in
14:22 74.2 °F 49.0 °F 29.78 in SSW 10.4 mph 10.4 mph 41% 0.00 in
14:27 71.3 °F 53.3 °F 29.81 in WSW 9.2 mph 9.2 mph 53% 0.02 in
14:32 66.4 °F 53.4 °F 29.83 in South 5.8 mph 5.8 mph 63% 0.17 in
14:37 62.1 °F 51.0 °F 29.84 in SSE 9.2 mph 9.2 mph 67% 0.18 in
14:42 61.0 °F 51.5 °F 29.84 in South 4.0 mph 4.0 mph 71% 0.18 in
14:47 61.8 °F 51.5 °F 29.83 in SSE 5.8 mph 5.8 mph 69% 0.18 in
14:52 62.1 °F 53.3 °F 29.83 in SSW 1.2 mph   73% 0.18 in
14:57 62.3 °F 52.0 °F 29.83 in West 3.5 mph 3.5 mph 69% 0.18 in
15:02 63.1 °F 52.4 °F 29.84 in SSW 2.3 mph 2.3 mph 68% 0.18 in
15:07 63.2 °F 52.5 °F 29.84 in Calm     68% 0.18 in
15:12 63.1 °F 52.4 °F 29.84 in SSW 2.3 mph 2.3 mph 68% 0.18 in
15:17 62.9 °F 53.0 °F 29.83 in SSE 3.5 mph 3.5 mph 70% 0.18 in
15:21 63.5 °F 52.7 °F 29.82 in SSE 3.5 mph 3.5 mph 68% 0.18 in
15:26 64.2 °F 53.0 °F 29.82 in SW 5.8 mph 5.8 mph 67% 0.16 in
15:31 64.3 °F 53.9 °F 29.82 in SSW 3.5 mph 3.5 mph 69% 0.01 in
15:36 65.2 °F 54.4 °F 29.83 in Calm     68% 0.00 in
15:41 66.4 °F 53.4 °F 29.81 in Calm     63% 0.00 in
15:46 68.4 °F 54.0 °F 29.80 in SE 5.0 mph 5.0 mph 60% 0.00 in
15:51 70.6 °F 54.1 °F 29.79 in SE 3.5 mph 3.5 mph 56% 0.00 in
15:56 71.5 °F 53.5 °F 29.78 in SSE 3.5 mph 3.5 mph 53% 0.00 in
16:01 72.1 °F 54.0 °F 29.80 in South 5.0 mph 5.0 mph 53% 0.00 in
16:06 72.3 °F 54.7 °F 29.80 in SSW 3.5 mph 3.5 mph 54% 0.00 in
16:11 72.0 °F 54.9 °F 29.81 in South 2.3 mph 2.3 mph 55% 0.00 in
16:16 71.3 °F 55.3 °F 29.82 in WSW 3.5 mph 3.5 mph 57% 0.00 in
16:21 70.4 °F 54.9 °F 29.82 in West 3.5 mph 3.5 mph 58% 0.00 in
16:26 69.8 °F 55.7 °F 29.82 in SSW 3.5 mph 3.5 mph 61% 0.00 in
16:31 69.1 °F 56.4 °F 29.81 in SSW 3.5 mph 3.5 mph 64% 0.00 in
16:36 68.3 °F 55.6 °F 29.81 in SSW 3.5 mph 3.5 mph 64% 0.00 in
16:41 68.1 °F 55.5 °F 29.81 in SSW 1.0 mph   64% 0.00 in
16:46 68.3 °F 54.3 °F 29.82 in WSW 2.3 mph 2.3 mph 61% 0.00 in
16:51 68.6 °F 54.2 °F 29.81 in South 3.5 mph 3.5 mph 60% 0.00 in
16:56 68.9 °F 53.5 °F 29.81 in SSW 3.5 mph 3.5 mph 58% 0.00 in
17:01 69.3 °F 53.9 °F 29.81 in SSW 1.2 mph 1.2 mph 58% 0.00 in
17:06 69.4 °F 53.5 °F 29.81 in SW 2.3 mph 2.3 mph 57% 0.00 in
17:11 69.6 °F 54.2 °F 29.80 in SW 3.5 mph 3.5 mph 58% 0.00 in
17:16 69.6 °F 52.7 °F 29.79 in South 5.8 mph 5.8 mph 55% 0.00 in
17:21 69.8 °F 52.9 °F 29.80 in South 4.6 mph 4.6 mph 55% 0.00 in
17:26 69.8 °F 53.9 °F 29.80 in SSE 3.5 mph 3.5 mph 57% 0.00 in
17:31 69.8 °F 54.4 °F 29.81 in SE 4.6 mph 4.6 mph 58% 0.00 in
17:36 69.4 °F 54.0 °F 29.82 in East 3.5 mph 3.5 mph 58% 0.00 in
17:41 69.1 °F 54.6 °F 29.83 in East 7.0 mph 7.0 mph 60% 0.00 in
17:46 68.8 °F 54.3 °F 29.83 in East 12.7 mph 12.7 mph 60% 0.01 in
17:51 68.4 °F 54.0 °F 29.83 in ESE 4.6 mph 4.6 mph 60% 0.01 in
17:56 68.3 °F 55.2 °F 29.83 in ESE 4.6 mph 4.6 mph 63% 0.01 in
18:01 68.1 °F 55.9 °F 29.81 in ESE 3.5 mph 3.5 mph 65% 0.01 in
18:06 67.9 °F 55.3 °F 29.81 in SE 6.0 mph 6.0 mph 64% 0.01 in
18:11 67.8 °F 54.3 °F 29.82 in SE 4.6 mph 4.6 mph 62% 0.01 in
18:16 67.4 °F 54.4 °F 29.83 in South 3.5 mph 3.5 mph 63% 0.01 in
18:21 67.1 °F 54.1 °F 29.83 in South 2.3 mph 2.3 mph 63% 0.01 in
18:26 66.8 °F 53.8 °F 29.84 in SSW 2.3 mph 2.3 mph 63% 0.01 in
18:31 66.6 °F 53.6 °F 29.85 in Calm     63% 0.01 in
18:36 66.6 °F 52.3 °F 29.86 in Calm     60% 0.01 in
18:41 66.6 °F 52.7 °F 29.87 in NNW 4.0 mph 4.0 mph 61% 0.01 in
18:46 66.8 °F 54.2 °F 29.88 in NNW 2.3 mph 2.3 mph 64% 0.00 in
18:51 66.3 °F 55.0 °F 29.85 in ENE 10.4 mph 10.4 mph 67% 0.00 in
18:56 64.8 °F 55.2 °F 29.84 in ENE 11.5 mph 11.5 mph 71% 0.00 in
19:01 63.9 °F 55.1 °F 29.82 in ENE 6.9 mph 6.9 mph 73% 0.00 in
19:06 63.7 °F 54.5 °F 29.81 in East 6.9 mph 6.9 mph 72% 0.00 in
19:11 63.4 °F 53.8 °F 29.82 in East 10.4 mph 10.4 mph 71% 0.00 in
19:16 63.4 °F 52.2 °F 29.81 in East 10.4 mph 10.4 mph 67% 0.00 in
19:21 64.2 °F 51.8 °F 29.81 in East 6.9 mph 6.9 mph 64% 0.00 in
19:26 65.6 °F 50.4 °F 29.80 in ENE 8.1 mph 8.1 mph 58% 0.00 in
19:31 65.5 °F 50.3 °F 29.80 in ENE 6.9 mph 6.9 mph 58% 0.00 in
19:36 65.2 °F 50.5 °F 29.81 in ENE 3.5 mph 3.5 mph 59% 0.00 in
19:41 65.0 °F 50.8 °F 29.81 in ENE 3.5 mph 3.5 mph 60% 0.00 in
19:46 64.5 °F 50.7 °F 29.82 in ENE 2.3 mph 2.3 mph 61% 0.00 in
19:51 64.3 °F 51.4 °F 29.83 in Calm     63% 0.00 in
19:56 63.9 °F 52.3 °F 29.83 in WSW 4.6 mph 4.6 mph 66% 0.00 in
20:01 63.5 °F 51.9 °F 29.83 in SE 3.5 mph 3.5 mph 66% 0.00 in
20:06 63.5 °F 51.9 °F 29.80 in SE 1.2 mph   66% 0.00 in
20:11 63.4 °F 51.8 °F 29.81 in South 2.3 mph 2.3 mph 66% 0.00 in
20:16 63.4 °F 51.8 °F 29.82 in South 1.0 mph 1.0 mph 66% 0.00 in
20:21 63.2 °F 51.6 °F 29.82 in Calm     66% 0.00 in
20:26 63.2 °F 52.5 °F 29.83 in Calm     68% 0.00 in
20:31 62.9 °F 52.2 °F 29.83 in Calm     68% 0.00 in
20:36 62.6 °F 51.9 °F 29.83 in Calm     68% 0.00 in
20:41 62.6 °F 52.7 °F 29.83 in Calm     70% 0.00 in
20:46 62.4 °F 53.6 °F 29.83 in Calm     73% 0.01 in
20:51 62.0 °F 53.2 °F 29.83 in Calm     73% 0.01 in
20:56 61.6 °F 52.9 °F 29.84 in Calm     73% 0.01 in
21:01 61.6 °F 52.5 °F 29.80 in WSW 2.3 mph 2.3 mph 72% 0.01 in
21:06 61.8 °F 52.3 °F 29.80 in SW 1.2 mph   71% 0.01 in
21:11 62.0 °F 53.6 °F 29.79 in South 2.3 mph 2.3 mph 74% 0.01 in
21:16 61.6 °F 53.6 °F 29.79 in Calm     75% 0.01 in
21:21 61.3 °F 53.7 °F 29.80 in Calm     76% 0.01 in
21:26 61.0 °F 53.7 °F 29.79 in South 2.3 mph 2.3 mph 77% 0.01 in
21:31 60.7 °F 53.8 °F 29.79 in Calm     78% 0.01 in
21:36 60.5 °F 52.9 °F 29.79 in Calm     76% 0.01 in
21:41 60.4 °F 53.2 °F 29.79 in Calm     77% 0.01 in
21:46 60.4 °F 53.5 °F 29.79 in Calm     78% 0.00 in
21:51 60.1 °F 53.2 °F 29.80 in Calm     78% 0.00 in
21:56 59.8 °F 52.2 °F 29.81 in Calm     76% 0.00 in
22:01 59.8 °F 51.5 °F 29.79 in Calm     74% 0.00 in
22:02 59.9 °F 52.0 °F 29.79 in Calm     75% 0.00 in
22:07 59.9 °F 52.0 °F 29.79 in SSW 2.3 mph 2.3 mph 75% 0.00 in
22:12 59.9 °F 52.0 °F 29.78 in SSE 2.3 mph   75% 0.00 in
22:17 59.9 °F 51.6 °F 29.78 in Calm     74% 0.00 in
22:22 60.1 °F 51.8 °F 29.78 in Calm     74% 0.00 in
Windsor CO Weather
Compliments of Weather Underground